NEODyS-2

Near Earth Objects - Dynamic Site
NEODyS ∴ Observatories ∴ Site 691 ∴ Obs & residuals
Contact »
691  ▹ 
OBSERVATIONS AND RESIDUALS

691-Steward Observatory, Kitt Peak-Spacewatch

Detections | Residuals | Detections & Residuals

[1-200] [201-400] [401-600] [601-800] [801-1000] [1001-1200] [1201-1400] [1401-1600] [1601-1800] [1801-2000] [2001-2200] [2201-2400] [2401-2600] [2601-2800] [2801-3000] [3001-3200] [3201-3400] [3401-3600] [3601-3800] [3801-4000] [4001-4200] [4201-4400] [4401-4600] [4601-4800] [4801-5000] [5001-5200] [5201-5400] [5401-5600] [5601-5800] [5801-6000] [6001-6200] [6201-6400] [6401-6600] [6601-6800] [6801-7000] [7001-7200] [7201-7400] [7401-7600] [7601-7800] [7801-8000] [8001-8200] [8201-8400] [8401-8600] [8601-8800] [8801-9000] [9001-9200] [9201-9400] [9401-9600] [9601-9800] [9801-10000] [10001-10200] [10201-10400] [10401-10600] [10601-10800] [10801-11000] [11001-11200] [11201-11400] [11401-11600] [11601-11800] [11801-12000] [12001-12200] [12201-12400] [12401-12600] [12601-12800] [12801-13000] [13001-13200] [13201-13400] [13401-13600] [13601-13800] [13801-14000] [14001-14200] [14201-14400] [14401-14600] [14601-14800] [14801-15000] [15001-15200] [15201-15400] [15401-15600] [15601-15800] [15801-16000] [16001-16200] [16201-16400] [16401-16600] [16601-16800] [16801-17000] [17001-17200] [17201-17400] [17401-17600] [17601-17800] [17801-18000] [18001-18200] [18201-18400] [18401-18600] [18601-18800] [18801-19000] [19001-19200] [19201-19400] [19401-19600] [19601-19800] [19801-20000] [20001-20200] [20201-20400] [20401-20600] [20601-20800] [20801-21000] [21001-21200] [21201-21400] [21401-21600] [21601-21800] [21801-22000] [22001-22200] [22201-22400] [22401-22600] [22601-22800] [22801-23000] [23001-23200] [23201-23400] [23401-23600] [23601-23800] [23801-24000] [24001-24200] [24201-24400] [24401-24600] [24601-24800] [24801-25000] [25001-25200] [25201-25400] [25401-25600] [25601-25800] [25801-26000] [26001-26200] [26201-26400] [26401-26600] [26601-26800] [26801-27000] [27001-27200] [27201-27400] [27401-27600] [27601-27800] [27801-28000] [28001-28200] [28201-28400] [28401-28600] [28601-28800] [28801-29000] [29001-29200] [29201-29400] [29401-29600] [29601-29800] [29801-30000] [30001-30200] [30201-30400] [30401-30600] [30601-30800] [30801-31000] [31001-31200] [31201-31400] [31401-31600] [31601-31800] [31801-32000] [32001-32200] [32201-32400] [32401-32600] [32601-32800] [32801-33000] [33001-33200] [33201-33400] [33401-33600] [33601-33800] [33801-34000] [34001-34200] [34201-34400] [34401-34600] [34601-34800] [34801-35000] [35001-35200] [35201-35400] [35401-35600] [35601-35800] [35801-36000] [36001-36200] [36201-36400] [36401-36600] [36601-36800] [36801-37000] [37001-37200] [37201-37400] [37401-37600] [37601-37800] [37801-38000] [38001-38200] [38201-38400] [38401-38600] [38601-38800] [38801-39000] [39001-39200] [39201-39400] [39401-39600] [39601-39800] [39801-40000] [40001-40200] [40201-40400] [40401-40600] [40601-40800] [40801-41000] [41001-41200] [41201-41400] [41401-41600] [41601-41800] [41801-42000] [42001-42200] [42201-42400] [42401-42600] [42601-42800] [42801-43000] [43001-43200] [43201-43400] [43401-43600] [43601-43800] [43801-44000] [44001-44200] [44201-44400] [44401-44600] [44601-44800] [44801-45000] [45001-45200] [45201-45400] [45401-45600] [45601-45800] [45801-46000] [46001-46200] [46201-46400] [46401-46600] [46601-46800] [46801-47000] [47001-47200] [47201-47400] [47401-47600] [47601-47800] [47801-48000] [48001-48200] [48201-48400] [48401-48600] [48601-48800] [48801-49000] [49001-49200] [49201-49400] [49401-49600] [49601-49800] [49801-50000] [50001-50200] [50201-50388]

Designation T Tech N Date Right Ascension Declination Apparent Magnitude Star Catalog Site code χ Used A Used M
yr-mo-day precision hr:min:sec precision rms F bias residual deg min sec precision rms F bias residual mag/col rms residual
2007VD12 O C K 2018-12-20.08574 1.000E-05 22:18:07.150 1.500E-01 0.500 F -0.009 -0.260 +06° 12' 43.80" 1.000E-01 0.500 F 0.446 0.337 18.3 R 0.70 -1.42 o 691 0.88 Yes Yes
2007VD12 O C K 2018-12-20.09296 1.000E-05 22:18:05.450 1.500E-01 0.500 F -0.009 0.160 +06° 13' 11.40" 1.000E-01 0.500 F 0.446 -0.405 18.3 R 0.70 -1.42 o 691 0.89 Yes Yes
2018TY2 O C 2018-12-20.10146 1.000E-05 23:03:46.380 1.500E-01 0.500 F -0.046 -0.168 -00° 41' 35.60" 1.000E-01 0.500 F 0.215 0.137 20.8 V 0.70 -0.32 o 691 0.44 Yes Yes
2018TY2 O C 2018-12-20.11616 1.000E-05 23:03:46.080 1.500E-01 0.500 F -0.046 -0.322 -00° 41' 42.60" 1.000E-01 0.500 F 0.215 -0.057 20.9 V 0.70 -0.22 o 691 0.67 Yes Yes
2018TY2 O C 2018-12-20.13094 1.000E-05 23:03:45.770 1.500E-01 0.500 F -0.046 -0.647 -00° 41' 48.50" 1.000E-01 0.500 F 0.215 0.884 20.9 V 0.70 -0.22 o 691 2.20 Yes Yes
2018UY O C 2018-12-20.15738 1.000E-05 01:08:48.150 1.500E-01 0.500 F -0.233 -0.069 +06° 53' 10.60" 1.000E-01 0.500 F 0.371 -0.420 20.5 V 0.70 -0.72 o 691 0.85 Yes Yes
2018UY O C 2018-12-20.17164 1.000E-05 01:08:46.270 1.500E-01 0.500 F -0.233 -0.372 +06° 53' 03.70" 1.000E-01 0.500 F 0.371 0.169 20.3 V 0.70 -0.92 o 691 0.82 Yes Yes
2018UY O C 2018-12-20.18590 1.000E-05 01:08:44.430 1.500E-01 0.500 F -0.233 -0.145 +06° 52' 56.30" 1.000E-01 0.500 F 0.371 0.269 20.7 V 0.70 -0.52 o 691 0.61 Yes Yes
2018TC3 O C K 2018-12-20.20454 1.000E-05 00:33:55.560 1.500E-01 0.500 F -0.164 -0.153 +15° 45' 24.20" 1.000E-01 0.500 F 0.281 -0.205 o 691 0.52 Yes No
2018TC3 O C K 2018-12-20.20917 1.000E-05 00:33:56.390 1.500E-01 0.500 F -0.164 0.100 +15° 45' 48.40" 1.000E-01 0.500 F 0.281 0.057 o 691 0.23 Yes No
2018TC3 O C K 2018-12-20.21380 1.000E-05 00:33:57.220 1.500E-01 0.500 F -0.164 0.329 +15° 46' 12.30" 1.000E-01 0.500 F 0.281 0.024 o 691 0.67 Yes No
2018YU O C K 2018-12-20.31958 1.000E-05 09:05:18.410 1.500E-01 0.500 F 0.138 -0.315 -07° 55' 22.80" 1.000E-01 0.500 F -0.035 0.099 20.5 R 0.70 -0.29 o 691 0.66 Yes Yes
2018YU O C K 2018-12-20.33417 1.000E-05 09:05:19.440 1.500E-01 0.500 F 0.138 -0.246 -07° 55' 51.90" 1.000E-01 0.500 F -0.035 0.326 20.7 R 0.70 -0.09 o 691 0.82 Yes Yes
2018YU O C K 2018-12-20.34875 1.000E-05 09:05:20.470 1.500E-01 0.500 F 0.138 -0.102 -07° 56' 22.20" 1.000E-01 0.500 F -0.035 -0.669 o 691 1.36 Yes No
2018XU6 O C K 2018-12-20.49847 1.000E-05 09:09:40.810 1.500E-01 0.500 F 0.034 -0.191 +30° 58' 10.60" 1.000E-01 0.500 F 0.417 0.370 21.7 R 0.70 0.34 o 691 0.84 Yes Yes
2018XU6 O C K 2018-12-20.50747 1.000E-05 09:09:41.900 1.500E-01 0.500 F 0.034 -0.087 +30° 58' 06.20" 1.000E-01 0.500 F 0.417 0.425 21.8 R 0.70 0.44 o 691 0.87 Yes Yes
2018XU6 O C K 2018-12-20.51645 1.000E-05 09:09:42.960 1.500E-01 0.500 F 0.034 -0.361 +30° 58' 01.30" 1.000E-01 0.500 F 0.417 0.001 o 691 0.73 Yes No
2007VD12 O C K 2018-12-21.08906 1.000E-05 22:14:16.850 1.500E-01 0.500 F 0.006 0.025 +07° 17' 52.30" 1.000E-01 0.500 F 0.480 -0.292 18.3 R 0.70 -1.48 o 691 0.59 Yes Yes
2007VD12 O C K 2018-12-21.09672 1.000E-05 22:14:15.030 1.500E-01 0.500 F 0.006 0.198 +07° 18' 22.00" 1.000E-01 0.500 F 0.480 -0.011 17.8 R 0.70 -1.98 o 691 0.41 Yes No
2007VD12 O C K 2018-12-21.10437 1.000E-05 22:14:13.190 1.500E-01 0.500 F 0.006 -0.003 +07° 18' 51.40" 1.000E-01 0.500 F 0.480 0.021 18.0 R 0.70 -1.78 o 691 0.04 Yes Yes
2018YA1 O C 2018-12-21.11284 1.000E-05 23:53:11.390 1.500E-01 0.500 F -0.187 -0.439 +11° 42' 11.50" 1.000E-01 0.500 F 0.275 0.116 19.4 V 0.70 -0.09 o 691 0.95 Yes Yes
2018YA1 O C 2018-12-21.12047 1.000E-05 23:53:14.240 1.500E-01 0.500 F -0.187 0.144 +11° 42' 27.20" 1.000E-01 0.500 F 0.275 -0.168 19.4 V 0.70 -0.09 o 691 0.46 Yes Yes
2018YA1 O C 2018-12-21.12795 1.000E-05 23:53:16.980 1.500E-01 0.500 F -0.187 -0.190 +11° 42' 43.10" 1.000E-01 0.500 F 0.275 0.156 19.7 V 0.70 0.20 o 691 0.51 Yes Yes
2018XZ2 O C K 2018-12-21.13796 1.000E-05 02:16:59.030 1.500E-01 0.500 F -0.289 0.625 +19° 00' 41.10" 1.000E-01 0.500 F 0.297 -0.345 o 691 1.44 Yes No
2018XZ2 O C K 2018-12-21.14402 1.000E-05 02:16:56.560 1.500E-01 0.500 F -0.276 -0.185 +19° 02' 06.00" 1.000E-01 0.500 F 0.321 -0.122 18.0 R 0.70 -0.05 o 691 0.45 Yes Yes
2018XZ2 O C K 2018-12-21.15007 1.000E-05 02:16:54.150 1.500E-01 0.500 F -0.276 -0.163 +19° 03' 30.50" 1.000E-01 0.500 F 0.321 -0.125 18.0 R 0.70 -0.05 o 691 0.42 Yes Yes
2018XB4 O C K 2018-12-21.15907 1.000E-05 02:57:04.480 1.500E-01 0.500 F -0.165 0.107 +05° 38' 18.80" 1.000E-01 0.500 F 0.191 0.609 o 691 1.24 Yes No
2018XB4 O C K 2018-12-21.17300 1.000E-05 02:56:59.350 1.500E-01 0.500 F -0.165 0.016 +05° 38' 59.90" 1.000E-01 0.500 F 0.191 -0.059 20.6 R 0.70 -0.09 o 691 0.12 Yes Yes
2018XA O C K 2018-12-21.24467 1.000E-05 05:23:26.950 1.500E-01 0.500 F -0.263 -0.521 +17° 05' 17.20" 1.000E-01 0.500 F 0.210 -0.397 o 691 1.31 Yes No
2018XA O C K 2018-12-21.26929 1.000E-05 05:23:28.310 1.500E-01 0.500 F -0.263 -0.712 +17° 05' 12.10" 1.000E-01 0.500 F 0.210 -0.162 o 691 1.47 Yes No
2018XD5 O C K 2018-12-21.29693 1.000E-05 07:03:24.320 1.500E-01 0.500 F -0.074 0.524 +24° 28' 45.20" 1.000E-01 0.500 F 0.270 0.050 19.8 R 0.70 0.04 o 691 1.12 Yes Yes
2018XD5 O C K 2018-12-21.31436 1.000E-05 07:03:12.330 1.500E-01 0.500 F -0.074 -0.337 +24° 28' 13.80" 1.000E-01 0.500 F 0.270 -0.305 19.6 R 0.70 -0.16 o 691 0.95 Yes Yes
2018XH O C K 2018-12-21.32600 1.000E-05 09:34:15.390 1.500E-01 0.500 F 0.154 -0.273 +16° 01' 56.40" 1.000E-01 0.500 F 0.287 0.031 19.2 R 0.70 0.27 o 691 0.55 Yes Yes
2018XH O C K 2018-12-21.33027 1.000E-05 09:34:17.250 1.500E-01 0.500 F 0.154 -0.086 +16° 01' 44.90" 1.000E-01 0.500 F 0.287 0.242 19.0 R 0.70 0.07 o 691 0.52 Yes Yes
2018XH O C K 2018-12-21.33454 1.000E-05 09:34:19.090 1.500E-01 0.500 F 0.154 -0.156 +16° 01' 32.80" 1.000E-01 0.500 F 0.287 -0.135 19.0 R 0.70 0.07 o 691 0.41 Yes Yes
Chelyabinsk O C 2018-12-21.33941 1.000E-05 10:22:57.960 1.500E-01 0.500 F 0.072 -0.533 -07° 15' 42.00" 1.000E-01 0.500 F 0.204 -0.228 18.4 V 0.70 0.28 o 691 1.16 Yes Yes
2018YB1 O C K 2018-12-21.33941 1.000E-05 10:27:28.290 1.500E-01 0.500 F 0.107 0.233 -07° 25' 55.10" 1.000E-01 0.500 F 0.176 0.123 19.8 R 0.70 -0.70 o 691 0.53 Yes Yes
Chelyabinsk O C 2018-12-21.35596 1.000E-05 10:22:57.720 1.500E-01 0.500 F 0.072 -0.089 -07° 16' 02.90" 1.000E-01 0.500 F 0.204 -0.060 18.4 V 0.70 0.28 o 691 0.21 Yes Yes
2018YB1 O C K 2018-12-21.35596 1.000E-05 10:27:31.930 1.500E-01 0.500 F 0.107 -1.029 -07° 26' 26.70" 1.000E-01 0.500 F 0.176 -0.082 20.3 R 0.70 -0.20 o 691 2.10 Yes Yes
Chelyabinsk O C 2018-12-21.37252 1.000E-05 10:22:57.510 1.500E-01 0.500 F 0.072 0.852 -07° 16' 24.50" 1.000E-01 0.500 F 0.204 -0.583 18.4 V 0.70 0.28 o 691 2.07 Yes Yes
2018YB1 O C K 2018-12-21.37252 1.000E-05 10:27:35.680 1.500E-01 0.500 F 0.107 -0.564 -07° 26' 58.10" 1.000E-01 0.500 F 0.176 -0.083 20.2 R 0.70 -0.30 o 691 1.16 Yes Yes
2018YA1 O C 2018-12-25.07179 1.000E-05 00:16:08.550 1.500E-01 0.612 F -0.198 -0.350 +13° 31' 44.20" 1.000E-01 0.612 F 0.362 0.004 19.7 V 0.70 -0.24 o 691 0.59 Yes Yes
2018YA1 O C 2018-12-25.07325 1.000E-05 00:16:08.860 1.500E-01 0.612 F -0.198 -0.407 +13° 31' 45.90" 1.000E-01 0.612 F 0.362 -0.118 19.8 V 0.70 -0.14 o 691 0.72 Yes Yes
2018YA1 O C 2018-12-25.07471 1.000E-05 00:16:09.190 1.500E-01 0.612 F -0.198 -0.171 +13° 31' 48.10" 1.000E-01 0.612 F 0.362 0.264 19.7 V 0.70 -0.24 o 691 0.52 Yes Yes
2018XZ1 O C K 2018-12-25.07796 1.000E-05 22:48:04.630 1.500E-01 0.500 F -0.126 0.311 +26° 26' 30.80" 1.000E-01 0.500 F 0.183 0.101 19.9 R 0.70 -0.18 o 691 0.65 Yes Yes
2018UZ O C K 2018-12-25.08347 1.000E-05 00:32:10.530 1.500E-01 0.500 F -0.256 0.043 +11° 31' 44.10" 1.000E-01 0.500 F 0.207 0.172 19.9 R 0.70 0.70 o 691 0.36 Yes Yes
2018YA1 O C K 2018-12-25.08919 1.000E-05 00:16:12.320 1.500E-01 0.612 F -0.198 0.048 +13° 32' 05.80" 1.000E-01 0.612 F 0.362 0.093 19.5 R 0.70 -0.04 o 691 0.17 Yes Yes
2018XZ1 O C K 2018-12-25.09370 1.000E-05 22:48:02.910 1.500E-01 0.500 F -0.126 0.139 +26° 27' 40.80" 1.000E-01 0.500 F 0.183 0.258 19.9 R 0.70 -0.18 o 691 0.59 Yes Yes
2018UZ O C K 2018-12-25.09861 1.000E-05 00:32:15.300 1.500E-01 0.500 F -0.256 -0.165 +11° 30' 56.50" 1.000E-01 0.500 F 0.207 0.207 19.8 R 0.70 0.60 o 691 0.54 Yes Yes
2018YA1 O C K 2018-12-25.10201 1.000E-05 00:16:15.070 1.500E-01 0.612 F -0.198 -0.169 +13° 32' 21.30" 1.000E-01 0.612 F 0.362 0.020 19.5 R 0.70 -0.04 o 691 0.29 Yes Yes
2018XZ1 O C K 2018-12-25.10627 1.000E-05 22:48:01.570 1.500E-01 0.500 F -0.126 0.381 +26° 28' 36.40" 1.000E-01 0.500 F 0.183 0.162 19.7 R 0.70 -0.38 o 691 0.83 Yes Yes
2018UZ O C K 2018-12-25.11085 1.000E-05 00:32:19.190 1.500E-01 0.500 F -0.256 0.123 +11° 30' 18.10" 1.000E-01 0.500 F 0.207 0.359 19.7 R 0.70 0.50 o 691 0.77 Yes Yes
2018YA1 O C K 2018-12-25.11425 1.000E-05 00:16:17.750 1.500E-01 0.612 F -0.198 0.260 +13° 32' 35.90" 1.000E-01 0.612 F 0.362 -0.034 19.8 R 0.70 0.25 o 691 0.45 Yes Yes
2018GX4 O C K 2018-12-25.12212 1.000E-05 01:56:50.030 1.500E-01 0.500 F -0.264 -0.285 +23° 28' 51.10" 1.000E-01 0.500 F 0.249 0.052 19.4 R 0.70 0.07 o 691 0.58 Yes Yes
2018RL O C K 2018-12-25.12784 1.000E-05 03:15:52.600 1.500E-01 0.500 F -0.349 -0.079 -13° 50' 15.90" 1.000E-01 0.500 F 0.123 -0.179 19.6 R 0.70 -0.20 o 691 0.39 Yes Yes
2018GX4 O C K 2018-12-25.14397 1.000E-05 01:56:53.380 1.500E-01 0.500 F -0.264 -0.134 +23° 29' 30.50" 1.000E-01 0.500 F 0.249 0.318 19.2 R 0.70 -0.13 o 691 0.69 Yes Yes
2018RL O C K 2018-12-25.15048 1.000E-05 03:15:55.490 1.500E-01 0.500 F -0.349 -0.148 -13° 50' 11.60" 1.000E-01 0.500 F 0.123 0.240 19.4 R 0.70 -0.40 o 691 0.57 Yes Yes
2018GX4 O C K 2018-12-25.16673 1.000E-05 01:56:56.860 1.500E-01 0.500 F -0.264 -0.119 +23° 30' 10.80" 1.000E-01 0.500 F 0.249 0.026 19.4 R 0.70 0.07 o 691 0.24 Yes Yes
2018RL O C K 2018-12-25.17400 1.000E-05 03:15:58.470 1.500E-01 0.500 F -0.349 -0.451 -13° 50' 07.60" 1.000E-01 0.500 F 0.123 0.105 o 691 0.94 Yes No
2018VB9 O C K 2018-12-25.38610 1.000E-05 05:54:07.710 1.500E-01 0.500 F -0.207 -0.068 -08° 41' 41.00" 1.000E-01 0.500 F 0.174 -0.049 18.2 R 0.70 0.01 o 691 0.17 Yes Yes
2018XK5 O C K 2018-12-25.39093 1.000E-05 06:09:52.450 1.500E-01 0.500 F -0.165 0.309 -17° 00' 34.40" 1.000E-01 0.500 F -0.104 -0.093 o 691 0.66 Yes No
2018VB9 O C K 2018-12-25.39771 1.000E-05 05:54:07.700 1.500E-01 0.500 F -0.207 0.010 -08° 41' 01.60" 1.000E-01 0.500 F 0.174 -0.026 18.3 R 0.70 0.11 o 691 0.06 Yes Yes
2018XK5 O C K 2018-12-25.40253 1.000E-05 06:09:52.400 1.500E-01 0.500 F -0.165 0.050 -16° 59' 39.80" 1.000E-01 0.500 F -0.104 -0.147 19.2 R 0.70 0.24 o 691 0.32 Yes Yes
2018VB9 O C K 2018-12-25.40932 1.000E-05 05:54:07.680 1.500E-01 0.500 F -0.207 -0.134 -08° 40' 22.30" 1.000E-01 0.500 F 0.174 -0.135 o 691 0.38 Yes No
2018XB4 O C K 2018-12-31.13470 1.000E-05 01:59:27.610 1.500E-01 0.500 F -0.309 -0.036 +14° 42' 56.10" 1.000E-01 0.500 F 0.245 -0.058 21.6 R 0.70 0.57 o 691 0.14 Yes Yes
2018XB4 O C K 2018-12-31.14473 1.000E-05 01:59:23.890 1.500E-01 0.500 F -0.309 0.905 +14° 43' 29.50" 1.000E-01 0.500 F 0.245 -0.738 o 691 2.34 Yes No
2018WR1 O C 2018-12-31.15479 1.000E-05 02:08:07.010 1.500E-01 0.500 F -0.309 -0.249 +18° 35' 58.90" 1.000E-01 0.500 F 0.198 -0.129 18.9 V 0.70 0.58 o 691 0.56 Yes Yes
2018XN O C 2018-12-31.15715 1.000E-05 01:47:20.120 1.500E-01 0.500 F -0.243 0.040 +16° 15' 32.90" 1.000E-01 0.500 F 0.356 -0.200 20.6 V 0.70 0.68 o 691 0.41 Yes Yes
2018WR1 O C 2018-12-31.16074 1.000E-05 02:08:04.980 1.500E-01 0.500 F -0.309 -0.405 +18° 35' 09.00" 1.000E-01 0.500 F 0.198 -0.440 19.0 V 0.70 0.68 o 691 1.20 Yes Yes
2018XN O C 2018-12-31.16309 1.000E-05 01:47:16.800 1.500E-01 0.500 F -0.243 -1.001 +16° 15' 30.00" 1.000E-01 0.500 F 0.356 -0.086 20.4 V 0.70 0.48 o 691 2.03 Yes Yes
2018WR1 O C 2018-12-31.16670 1.000E-05 02:08:02.980 1.500E-01 0.500 F -0.309 -0.098 +18° 34' 19.40" 1.000E-01 0.500 F 0.198 -0.328 19.0 V 0.70 0.68 o 691 0.69 Yes Yes
2018XN O C 2018-12-31.16904 1.000E-05 01:47:13.670 1.500E-01 0.500 F -0.243 0.730 +16° 15' 27.10" 1.000E-01 0.500 F 0.356 0.088 20.4 V 0.70 0.48 o 691 1.49 Yes Yes
2018UZ O C K 2018-12-31.18037 1.000E-05 01:06:52.240 1.500E-01 0.500 F -0.183 0.501 +06° 00' 04.90" 1.000E-01 0.500 F 0.306 0.064 19.9 R 0.70 0.75 o 691 1.02 Yes Yes
2018UZ O C K 2018-12-31.19623 1.000E-05 01:06:57.680 1.500E-01 0.500 F -0.183 -0.329 +05° 59' 11.60" 1.000E-01 0.500 F 0.306 0.116 19.3 R 0.70 0.15 o 691 0.71 Yes Yes
2018UZ O C K 2018-12-31.21212 1.000E-05 01:07:03.190 1.500E-01 0.500 F -0.183 -0.456 +05° 58' 17.70" 1.000E-01 0.500 F 0.306 -0.307 19.2 R 0.70 0.05 o 691 1.11 Yes Yes
1998YF10 O C K 2018-12-31.23289 1.000E-05 03:17:45.940 1.500E-01 0.500 F -0.332 -0.503 +19° 10' 21.20" 1.000E-01 0.500 F 0.340 -0.050 o 691 1.01 Yes No
1998YF10 O C K 2018-12-31.25624 1.000E-05 03:17:47.160 1.500E-01 0.500 F -0.332 -0.072 +19° 11' 23.70" 1.000E-01 0.500 F 0.340 0.465 o 691 0.96 Yes No
1998YF10 O C K 2018-12-31.27939 1.000E-05 03:17:48.330 1.500E-01 0.500 F -0.332 -0.448 +19° 12' 24.40" 1.000E-01 0.500 F 0.340 -0.123 o 691 0.93 Yes No
2018XD5 O C K 2018-12-31.33821 1.000E-05 05:11:15.400 1.500E-01 0.500 F -0.136 0.272 +16° 24' 36.20" 1.000E-01 0.500 F 0.175 0.328 20.1 R 0.70 0.23 o 691 0.97 Yes Yes
2018XD5 O C K 2018-12-31.33945 1.000E-05 05:11:14.560 1.500E-01 0.500 F -0.136 -0.057 +16° 24' 31.30" 1.000E-01 0.500 F 0.175 -0.049 20.0 R 0.70 0.13 o 691 0.17 Yes Yes
2018RR7 O C K 2018-12-31.34154 1.000E-05 05:24:09.050 1.500E-01 0.500 F -0.188 0.057 +18° 05' 54.60" 1.000E-01 0.500 F 0.163 -0.045 21.2 R 0.70 0.35 o 691 0.15 Yes Yes
2018YQ2 O C K 2018-12-31.34662 1.000E-05 04:35:35.610 1.500E-01 0.500 F -0.170 -0.258 +16° 38' 22.50" 1.000E-01 0.500 F 0.292 -0.849 21.2 R 0.70 1.24 o 691 1.78 Yes Yes
2018RR7 O C K 2018-12-31.35842 1.000E-05 05:24:07.870 1.500E-01 0.500 F -0.188 -0.488 +18° 06' 06.40" 1.000E-01 0.500 F 0.163 0.083 o 691 1.00 Yes No
2018YQ2 O C K 2018-12-31.36344 1.000E-05 04:35:23.760 1.500E-01 0.500 F -0.170 0.386 +16° 37' 21.70" 1.000E-01 0.500 F 0.292 -0.726 20.3 R 0.70 0.34 o 691 1.65 Yes Yes
2018RR7 O C K 2018-12-31.37523 1.000E-05 05:24:06.770 1.500E-01 0.500 F -0.188 -0.060 +18° 06' 18.00" 1.000E-01 0.500 F 0.163 0.100 21.1 R 0.70 0.25 o 691 0.24 Yes Yes
2018YS2 O C K 2018-12-31.39791 1.000E-05 06:39:45.790 1.500E-01 0.500 F -0.009 -0.402 +24° 18' 28.10" 1.000E-01 0.500 F 0.162 0.266 20.9 R 0.70 0.34 o 691 1.03 Yes Yes
2018XU2 O C 2018-12-31.40563 1.000E-05 07:07:50.730 1.500E-01 0.500 F -0.095 -0.640 +17° 44' 40.60" 1.000E-01 0.500 F 0.220 0.804 21.0 V 0.70 0.97 o 691 2.07 Yes Yes
2018YS2 O C K 2018-12-31.40812 1.000E-05 06:39:45.710 1.500E-01 0.500 F -0.009 -0.258 +24° 18' 06.40" 1.000E-01 0.500 F 0.162 0.451 20.1 R 0.70 -0.46 o 691 1.12 Yes Yes
2018XU2 O C 2018-12-31.41564 1.000E-05 07:07:50.690 1.500E-01 0.500 F -0.095 -0.142 +17° 44' 33.10" 1.000E-01 0.500 F 0.220 -0.045 20.0 V 0.70 -0.02 o 691 0.30 Yes Yes
2018XU2 O C 2018-12-31.42563 1.000E-05 07:07:50.610 1.500E-01 0.500 F -0.095 -0.256 +17° 44' 26.30" 1.000E-01 0.500 F 0.220 -0.187 20.0 V 0.70 -0.02 o 691 0.64 Yes Yes
2018VC5 O C K 2019-01-05.07533 1.000E-05 23:13:51.770 1.500E-01 0.500 F -0.078 -0.012 +26° 06' 13.90" 1.000E-01 0.500 F 0.292 0.381 20.2 R 0.70 -0.13 o 691 0.78 Yes Yes
2006OT9 O C K 2019-01-05.07988 1.000E-05 23:25:13.450 1.500E-01 0.500 F -0.093 -0.045 +27° 21' 52.30" 1.000E-01 0.500 F 0.185 -0.069 20.6 R 0.70 0.41 o 691 0.17 Yes Yes
2018VC5 O C K 2019-01-05.08427 1.000E-05 23:13:50.520 1.500E-01 0.500 F -0.078 0.145 +26° 06' 02.70" 1.000E-01 0.500 F 0.292 0.055 20.4 R 0.70 0.07 o 691 0.32 Yes Yes
2006OT9 O C K 2019-01-05.08882 1.000E-05 23:25:15.160 1.500E-01 0.500 F -0.093 -0.005 +27° 21' 48.70" 1.000E-01 0.500 F 0.185 0.133 20.8 R 0.70 0.61 o 691 0.27 Yes Yes
2018VC5 O C K 2019-01-05.09321 1.000E-05 23:13:49.220 1.500E-01 0.500 F -0.078 -0.400 +26° 05' 52.40" 1.000E-01 0.500 F 0.292 0.648 19.9 R 0.70 -0.43 o 691 1.55 Yes Yes
2018TX4 O C K 2019-01-05.10346 1.000E-05 00:05:35.180 1.500E-01 0.500 F -0.119 0.014 +14° 26' 56.90" 1.000E-01 0.500 F 0.300 -0.068 21.2 R 0.70 0.12 o 691 0.14 Yes Yes
2002UX O C 2019-01-05.10837 1.000E-05 00:19:33.860 1.500E-01 0.500 F -0.227 -0.434 +15° 45' 06.00" 1.000E-01 0.500 F 0.547 0.032 20.4 V 0.70 -0.05 o 691 0.88 Yes Yes
2018YA1 O C K 2019-01-05.11651 1.000E-05 00:48:54.050 1.500E-01 0.500 F -0.185 -0.045 +15° 53' 16.60" 1.000E-01 0.500 F 0.437 0.115 20.8 R 0.70 0.18 o 691 0.25 Yes Yes
2018TX4 O C K 2019-01-05.12179 1.000E-05 00:05:35.790 1.500E-01 0.500 F -0.119 0.124 +14° 26' 57.40" 1.000E-01 0.500 F 0.300 0.147 21.3 R 0.70 0.22 o 691 0.39 Yes Yes
2002UX O C 2019-01-05.12670 1.000E-05 00:19:37.620 1.500E-01 0.500 F -0.227 -0.323 +15° 45' 04.70" 1.000E-01 0.500 F 0.547 0.163 20.5 V 0.70 0.05 o 691 0.73 Yes Yes
2018YA1 O C K 2019-01-05.13484 1.000E-05 00:48:55.580 1.500E-01 0.500 F -0.185 -0.669 +15° 53' 24.40" 1.000E-01 0.500 F 0.437 0.151 20.1 R 0.70 -0.52 o 691 1.39 Yes Yes
2018TX4 O C K 2019-01-05.14012 1.000E-05 00:05:36.440 1.500E-01 0.500 F -0.119 0.754 +14° 26' 57.50" 1.000E-01 0.500 F 0.300 -0.025 21.1 R 0.70 0.02 o 691 1.52 Yes Yes
2002UX O C 2019-01-05.14504 1.000E-05 00:19:41.370 1.500E-01 0.500 F -0.227 -0.437 +15° 45' 02.90" 1.000E-01 0.500 F 0.547 -0.183 20.6 V 0.70 0.15 o 691 0.95 Yes Yes
2018YA1 O C K 2019-01-05.15317 1.000E-05 00:48:57.250 1.500E-01 0.500 F -0.185 0.195 +15° 53' 32.50" 1.000E-01 0.500 F 0.437 0.772 20.0 R 0.70 -0.62 o 691 1.61 Yes Yes
2018XV5 O C K 2019-01-05.31378 1.000E-05 04:51:21.230 1.500E-01 0.500 F -0.085 -0.023 +06° 11' 23.90" 1.000E-01 0.500 F 0.090 0.176 o 691 0.36 Yes No
2017BP5 O C K 2019-01-05.32042 1.000E-05 05:01:22.960 1.500E-01 0.500 F -0.112 0.116 -00° 53' 40.50" 1.000E-01 0.500 F 0.022 -0.061 21.0 R 0.70 0.12 o 691 0.26 Yes Yes
2010GJ23 O C H 2019-01-05.32547 1.000E-05 04:39:21.170 1.500E-01 0.500 F -0.251 -0.140 -06° 08' 11.70" 1.000E-01 0.500 F 0.017 -0.103 18.4 R 0.70 -0.72 o 691 0.35 Yes Yes
2018XV5 O C K 2019-01-05.32721 1.000E-05 04:51:20.520 1.500E-01 0.500 F -0.085 -1.201 +06° 11' 28.50" 1.000E-01 0.500 F 0.090 0.453 21.4 R 0.70 0.14 o 691 2.58 Yes Yes
2017BP5 O C K 2019-01-05.33384 1.000E-05 05:01:21.930 1.500E-01 0.500 F -0.112 -0.008 -00° 53' 35.40" 1.000E-01 0.500 F 0.022 0.510 20.6 R 0.70 -0.28 o 691 1.02 Yes Yes
2010GJ23 O C H 2019-01-05.33890 1.000E-05 04:39:21.970 1.500E-01 0.500 F -0.251 0.458 -06° 07' 27.10" 1.000E-01 0.500 F 0.017 0.053 18.5 R 0.70 -0.62 o 691 0.93 Yes Yes
2018XV5 O C K 2019-01-05.34064 1.000E-05 04:51:20.000 1.500E-01 0.500 F -0.085 0.429 +06° 11' 32.20" 1.000E-01 0.500 F 0.090 -0.168 21.2 R 0.70 -0.06 o 691 0.92 Yes Yes
2017BP5 O C K 2019-01-05.34727 1.000E-05 05:01:20.900 1.500E-01 0.500 F -0.112 -0.197 -00° 53' 31.40" 1.000E-01 0.500 F 0.022 -0.025 o 691 0.40 Yes No
2010GJ23 O C H 2019-01-05.35233 1.000E-05 04:39:22.700 1.500E-01 0.500 F -0.251 -0.083 -06° 06' 41.10" 1.000E-01 0.500 F 0.017 1.599 18.1 R 0.70 -1.02 o 691 3.16 No Yes
2018UY O C K 2019-01-08.07468 1.000E-05 00:40:06.750 1.500E-01 0.500 F -0.216 -0.189 +05° 06' 44.60" 1.000E-01 0.500 F 0.121 0.062 20.8 R 0.70 -0.35 o 691 0.40 Yes Yes
2018UY O C K 2019-01-08.08118 1.000E-05 00:40:06.230 1.500E-01 0.500 F -0.216 -0.604 +05° 06' 43.20" 1.000E-01 0.500 F 0.121 0.011 20.8 R 0.70 -0.35 o 691 1.21 Yes Yes
2018UY O C K 2019-01-08.08769 1.000E-05 00:40:05.760 1.500E-01 0.500 F -0.216 -0.268 +05° 06' 41.90" 1.000E-01 0.500 F 0.121 0.064 20.6 R 0.70 -0.55 o 691 0.55 Yes Yes
2018YA1 O C K 2019-01-08.13751 1.000E-05 00:54:28.110 1.500E-01 0.500 F -0.188 -0.667 +16° 15' 53.00" 1.000E-01 0.500 F 0.390 -0.436 20.5 R 0.70 -0.36 o 691 1.62 Yes Yes
2018YA1 O C K 2019-01-08.14249 1.000E-05 00:54:28.520 1.500E-01 0.500 F -0.188 -0.061 +16° 15' 54.90" 1.000E-01 0.500 F 0.390 -0.231 o 691 0.48 Yes No
2018YA1 O C K 2019-01-08.14747 1.000E-05 00:54:28.960 1.500E-01 0.500 F -0.188 0.936 +16° 15' 56.40" 1.000E-01 0.500 F 0.390 -0.408 20.3 R 0.70 -0.56 o 691 2.09 Yes Yes
2019AY4 O C K 2019-01-08.18251 1.000E-05 03:45:47.880 1.500E-01 0.500 F -0.268 0.701 -02° 48' 58.40" 1.000E-01 0.500 F 0.262 0.360 21.6 R 0.70 0.44 o 691 1.59 Yes Yes
2019AY4 O C K 2019-01-08.20167 1.000E-05 03:45:48.670 1.500E-01 0.500 F -0.268 0.094 -02° 50' 23.50" 1.000E-01 0.500 F 0.262 -0.500 22.0 R 0.70 0.83 o 691 1.03 Yes Yes
2019AC O C K 2019-01-08.23210 1.000E-05 03:28:17.350 1.500E-01 0.500 F -0.231 -0.062 +18° 43' 58.10" 1.000E-01 0.500 F 0.397 -0.205 19.1 R 0.70 -0.46 o 691 0.43 Yes Yes
2019AC O C K 2019-01-08.23586 1.000E-05 03:28:17.450 1.500E-01 0.500 F -0.231 -0.042 +18° 44' 08.80" 1.000E-01 0.500 F 0.397 -0.160 19.2 R 0.70 -0.36 o 691 0.33 Yes Yes
2019AC O C K 2019-01-08.23962 1.000E-05 03:28:17.550 1.500E-01 0.500 F -0.231 -0.031 +18° 44' 19.60" 1.000E-01 0.500 F 0.397 -0.011 19.0 R 0.70 -0.56 o 691 0.07 Yes Yes
2018XX5 O C K 2019-01-08.24361 1.000E-05 03:44:30.520 1.500E-01 0.500 F -0.099 0.088 +17° 52' 18.90" 1.000E-01 0.500 F 0.302 -0.424 21.5 R 0.70 0.45 o 691 1.06 Yes Yes
2018XX5 O C K 2019-01-08.25247 1.000E-05 03:44:30.990 1.500E-01 0.500 F -0.099 -0.374 +17° 51' 56.10" 1.000E-01 0.500 F 0.302 0.067 21.9 R 0.70 0.85 o 691 0.93 Yes Yes
2018XX5 O C K 2019-01-08.26133 1.000E-05 03:44:31.540 1.500E-01 0.500 F -0.099 0.284 +17° 51' 33.10" 1.000E-01 0.500 F 0.302 0.361 21.5 R 0.70 0.45 o 691 1.13 Yes Yes
2019AQ2 O C K 2019-01-08.27470 1.000E-05 03:38:27.330 1.500E-01 0.500 F -0.139 -0.232 +24° 21' 00.90" 1.000E-01 0.500 F 0.287 -0.260 20.9 R 0.70 0.50 o 691 0.70 Yes Yes
2019AQ2 O C K 2019-01-08.27906 1.000E-05 03:38:29.220 1.500E-01 0.500 F -0.139 0.094 +24° 21' 11.20" 1.000E-01 0.500 F 0.287 -0.221 21.0 R 0.70 0.60 o 691 0.48 Yes Yes
2018XV5 O C K 2019-01-08.28593 1.000E-05 04:49:14.760 1.500E-01 0.500 F -0.085 0.249 +06° 27' 47.20" 1.000E-01 0.500 F 0.090 0.265 21.2 R 0.70 -0.16 o 691 0.73 Yes Yes
2018XV5 O C K 2019-01-08.30061 1.000E-05 04:49:14.150 1.500E-01 0.500 F -0.085 0.186 +06° 27' 52.00" 1.000E-01 0.500 F 0.090 0.131 21.4 R 0.70 0.04 o 691 0.46 Yes Yes
2007HW4 O C K 2019-01-08.30766 1.000E-05 04:27:58.680 1.500E-01 0.500 F -0.178 -0.221 +16° 24' 15.60" 1.000E-01 0.500 F 0.187 0.330 o 691 0.80 Yes No
2007HW4 O C K 2019-01-08.31406 1.000E-05 04:28:00.780 1.500E-01 0.500 F -0.178 -0.107 +16° 24' 32.10" 1.000E-01 0.500 F 0.187 0.192 o 691 0.44 Yes No
2007HW4 O C K 2019-01-08.32047 1.000E-05 04:28:02.930 1.500E-01 0.500 F -0.178 0.662 +16° 24' 48.70" 1.000E-01 0.500 F 0.187 0.164 o 691 1.39 Yes No
2018XF3 O C K 2019-01-08.32809 1.000E-05 06:05:10.510 1.500E-01 0.500 F 0.028 0.249 +05° 46' 37.30" 1.000E-01 0.500 F 0.126 -0.424 21.2 R 0.70 0.26 o 691 1.07 Yes Yes
2018XF3 O C K 2019-01-08.33498 1.000E-05 06:05:09.770 1.500E-01 0.500 F 0.028 0.180 +05° 46' 10.90" 1.000E-01 0.500 F 0.126 0.087 20.9 R 0.70 -0.04 o 691 0.45 Yes Yes
2018XF3 O C K 2019-01-08.34187 1.000E-05 06:05:09.030 1.500E-01 0.500 F 0.028 0.091 +05° 45' 44.10" 1.000E-01 0.500 F 0.126 0.194 21.0 R 0.70 0.06 o 691 0.52 Yes Yes
2018YS2 O C K 2019-01-08.35025 1.000E-05 06:41:25.030 1.500E-01 0.500 F -0.137 -0.183 +18° 41' 48.30" 1.000E-01 0.500 F 0.231 0.087 21.1 R 0.70 0.63 o 691 0.49 Yes Yes
2018YS2 O C K 2019-01-08.35391 1.000E-05 06:41:25.030 1.500E-01 0.500 F -0.137 0.049 +18° 41' 36.80" 1.000E-01 0.500 F 0.231 -0.107 20.7 R 0.70 0.23 o 691 0.29 Yes Yes
2018YS2 O C K 2019-01-08.35757 1.000E-05 06:41:25.010 1.500E-01 0.500 F -0.137 -0.014 +18° 41' 25.60" 1.000E-01 0.500 F 0.231 0.009 20.8 R 0.70 0.33 o 691 0.04 Yes Yes
2018YZ2 O C K 2019-01-08.36292 1.000E-05 07:00:46.350 1.500E-01 0.500 F -0.133 0.192 +22° 31' 40.00" 1.000E-01 0.500 F 0.249 -0.021 20.2 R 0.70 -0.03 o 691 0.39 Yes Yes
2018YZ2 O C K 2019-01-08.36550 1.000E-05 07:00:45.990 1.500E-01 0.500 F -0.133 0.241 +22° 31' 37.00" 1.000E-01 0.500 F 0.249 0.297 20.7 R 0.70 0.47 o 691 0.77 Yes Yes
2018YZ2 O C K 2019-01-08.36807 1.000E-05 07:00:45.610 1.500E-01 0.500 F -0.133 -0.007 +22° 31' 33.80" 1.000E-01 0.500 F 0.249 0.404 20.6 R 0.70 0.37 o 691 0.81 Yes Yes
2018YB O C K 2019-01-08.42378 1.000E-05 08:13:48.930 1.500E-01 0.500 F 0.075 -0.317 +19° 51' 42.80" 1.000E-01 0.500 F 0.318 -0.080 o 691 0.73 Yes No
2018YB O C K 2019-01-08.43120 1.000E-05 08:13:48.170 1.500E-01 0.500 F 0.075 0.480 +19° 51' 48.80" 1.000E-01 0.500 F 0.318 -0.249 22.4 R 0.70 0.87 o 691 1.22 Yes Yes
2018XL5 O C K 2019-01-08.44221 1.000E-05 10:21:11.620 1.500E-01 0.500 F 0.101 -0.006 -06° 27' 20.00" 1.000E-01 0.500 F 0.121 -0.023 21.2 R 0.70 -0.41 o 691 0.05 Yes Yes
2018XL5 O C K 2019-01-08.45125 1.000E-05 10:21:10.930 1.500E-01 0.500 F 0.101 -0.022 -06° 27' 31.50" 1.000E-01 0.500 F 0.121 0.141 21.2 R 0.70 -0.41 o 691 0.30 Yes Yes
2018XL5 O C K 2019-01-08.46031 1.000E-05 10:21:10.240 1.500E-01 0.500 F 0.101 -0.014 -06° 27' 43.40" 1.000E-01 0.500 F 0.121 -0.081 21.4 R 0.70 -0.21 o 691 0.17 Yes Yes
1999EF5 O C K 2019-01-08.52624 1.000E-05 13:39:49.150 1.500E-01 0.500 F 0.235 -0.807 +29° 37' 01.70" 1.000E-01 0.500 F 0.256 0.461 21.3 R 0.70 -0.13 o 691 1.97 Yes Yes
1999EF5 O C K 2019-01-08.53930 1.000E-05 13:39:50.780 1.500E-01 0.500 F 0.235 -0.021 +29° 36' 45.50" 1.000E-01 0.500 F 0.256 0.057 21.4 R 0.70 -0.03 o 691 0.13 Yes Yes
1999EF5 O C K 2019-01-08.55236 1.000E-05 13:39:52.370 1.500E-01 0.500 F 0.235 0.259 +29° 36' 29.40" 1.000E-01 0.500 F 0.256 -0.219 22.0 R 0.70 0.57 o 691 0.72 Yes Yes
2018XG5 O C K 2019-01-09.07347 1.000E-05 04:04:28.420 1.500E-01 0.500 F -0.272 -0.252 -05° 39' 58.80" 1.000E-01 0.500 F 0.177 0.173 20.8 R 0.70 -0.06 o 691 0.61 Yes Yes
2018XG5 O C K 2019-01-09.08390 1.000E-05 04:04:27.580 1.500E-01 0.500 F -0.272 -0.150 -05° 40' 05.60" 1.000E-01 0.500 F 0.177 0.174 20.5 R 0.70 -0.36 o 691 0.46 Yes Yes
2018YE2 O C K 2019-01-09.09068 1.000E-05 01:48:26.420 1.500E-01 0.500 F -0.203 0.244 +02° 15' 54.80" 1.000E-01 0.500 F 0.314 0.387 20.1 R 0.70 -0.33 o 691 0.93 Yes Yes
2018YE2 O C K 2019-01-09.09427 1.000E-05 01:48:26.470 1.500E-01 0.500 F -0.203 0.352 +02° 16' 07.00" 1.000E-01 0.500 F 0.314 -0.212 20.4 R 0.70 -0.03 o 691 0.83 Yes Yes
2018YE2 O C K 2019-01-09.09786 1.000E-05 01:48:26.480 1.500E-01 0.500 F -0.203 -0.141 +02° 16' 20.00" 1.000E-01 0.500 F 0.314 -0.010 20.4 R 0.70 -0.03 o 691 0.29 Yes Yes
2019AJ2 O C K 2019-01-09.10329 1.000E-05 03:00:39.820 1.500E-01 0.500 F -0.274 0.077 +07° 14' 01.00" 1.000E-01 0.500 F 0.230 0.294 21.0 R 0.70 -0.47 o 691 0.74 Yes Yes
2019AJ2 O C K 2019-01-09.11384 1.000E-05 03:00:42.230 1.500E-01 0.500 F -0.274 -0.504 +07° 13' 53.00" 1.000E-01 0.500 F 0.230 -0.318 o 691 1.46 Yes No
2019AJ2 O C K 2019-01-09.12439 1.000E-05 03:00:44.730 1.500E-01 0.500 F -0.274 0.273 +07° 13' 46.10" 1.000E-01 0.500 F 0.230 0.174 20.9 R 0.70 -0.57 o 691 0.79 Yes Yes
2018YF2 O C K 2019-01-09.13606 1.000E-05 01:13:45.630 1.500E-01 0.500 F -0.249 0.042 +05° 37' 32.60" 1.000E-01 0.500 F 0.356 0.368 21.0 R 0.70 -0.15 o 691 0.76 Yes Yes
2018YF2 O C K 2019-01-09.14487 1.000E-05 01:13:46.800 1.500E-01 0.500 F -0.249 -0.092 +05° 36' 50.70" 1.000E-01 0.500 F 0.356 0.069 21.0 R 0.70 -0.15 o 691 0.24 Yes Yes
2018VQ3 O C K 2019-01-09.16300 1.000E-05 00:46:32.940 1.500E-01 0.500 F -0.312 -0.118 -12° 34' 40.50" 1.000E-01 0.500 F 0.204 -0.215 o 691 0.59 Yes No
2018VQ3 O C K 2019-01-09.17114 1.000E-05 00:46:31.800 1.500E-01 0.500 F -0.312 0.056 -12° 34' 33.20" 1.000E-01 0.500 F 0.204 0.353 22.1 R 0.70 1.20 o 691 0.84 Yes Yes
2019AL2 O C K 2019-01-09.18251 1.000E-05 03:49:57.130 1.500E-01 0.500 F -0.329 0.274 +00° 31' 58.20" 1.000E-01 0.500 F 0.144 0.184 20.6 R 0.70 0.28 o 691 0.67 Yes Yes
2019AL2 O C K 2019-01-09.18675 1.000E-05 03:49:58.280 1.500E-01 0.500 F -0.329 -0.415 +00° 31' 34.40" 1.000E-01 0.500 F 0.144 0.130 20.3 R 0.70 -0.02 o 691 0.88 Yes Yes
2019AL2 O C K 2019-01-09.19098 1.000E-05 03:49:59.500 1.500E-01 0.500 F -0.329 -0.018 +00° 31' 10.50" 1.000E-01 0.500 F 0.144 -0.080 20.3 R 0.70 -0.02 o 691 0.17 Yes Yes
2018XD5 O C K 2019-01-09.19522 1.000E-05 03:56:44.410 1.500E-01 0.500 F -0.137 -0.156 +08° 19' 50.00" 1.000E-01 0.500 F 0.124 0.117 20.5 R 0.70 -0.46 o 691 0.41 Yes Yes
2018XD5 O C K 2019-01-09.20357 1.000E-05 03:56:40.930 1.500E-01 0.500 F -0.137 0.297 +08° 19' 26.80" 1.000E-01 0.500 F 0.124 0.224 21.0 R 0.70 0.04 o 691 0.79 Yes Yes
2018XD5 O C K 2019-01-09.21194 1.000E-05 03:56:37.420 1.500E-01 0.500 F -0.137 0.359 +08° 19' 03.10" 1.000E-01 0.500 F 0.124 -0.090 20.9 R 0.70 -0.06 o 691 0.78 Yes Yes
2007HW4 O C K 2019-01-09.22119 1.000E-05 04:32:50.330 1.500E-01 0.500 F -0.168 -0.311 +17° 01' 22.40" 1.000E-01 0.500 F 0.244 0.079 22.1 R 0.70 0.79 o 691 0.66 Yes Yes
2011OL5 O C 2019-01-09.22119 1.000E-05 04:35:15.580 1.500E-01 0.500 F -0.170 -0.268 +16° 45' 56.30" 1.000E-01 0.500 F 0.292 0.080 o 691 0.56 Yes No
2007HW4 O C K 2019-01-09.22781 1.000E-05 04:32:52.190 1.500E-01 0.500 F -0.168 0.056 +17° 01' 37.30" 1.000E-01 0.500 F 0.244 0.286 21.6 R 0.70 0.29 o 691 0.59 Yes Yes
2011OL5 O C 2019-01-09.22781 1.000E-05 04:35:14.320 1.500E-01 0.500 F -0.170 -0.203 +16° 46' 30.00" 1.000E-01 0.500 F 0.292 0.013 o 691 0.41 Yes No
2011OL5 O C 2019-01-09.23443 1.000E-05 04:35:13.020 1.500E-01 0.500 F -0.170 -0.726 +16° 47' 03.80" 1.000E-01 0.500 F 0.292 0.067 o 691 1.47 Yes No
2019AV3 O C K 2019-01-09.30256 1.000E-05 07:56:46.110 1.500E-01 0.500 F 0.043 -0.095 +02° 39' 53.10" 1.000E-01 0.500 F 0.141 -0.199 20.6 R 0.70 -0.84 o 691 0.52 Yes Yes
2019AV3 O C K 2019-01-09.30808 1.000E-05 07:56:45.830 1.500E-01 0.500 F 0.043 -0.398 +02° 40' 05.90" 1.000E-01 0.500 F 0.141 0.363 21.2 R 0.70 -0.24 o 691 1.28 Yes Yes
2019AV3 O C K 2019-01-09.31361 1.000E-05 07:56:45.590 1.500E-01 0.500 F 0.043 -0.087 +02° 40' 17.50" 1.000E-01 0.500 F 0.141 -0.296 21.5 R 0.70 0.06 o 691 0.73 Yes Yes
2019AO3 O C K 2019-01-09.31994 1.000E-05 09:13:57.020 1.500E-01 0.500 F 0.221 -0.014 +08° 38' 32.60" 1.000E-01 0.500 F 0.180 0.025 22.2 R 0.70 0.85 o 691 0.06 Yes Yes
2019AO3 O C K 2019-01-09.32806 1.000E-05 09:13:56.120 1.500E-01 0.500 F 0.221 -0.231 +08° 38' 08.10" 1.000E-01 0.500 F 0.180 -0.260 21.4 R 0.70 0.05 o 691 0.71 Yes Yes
2019AO3 O C K 2019-01-09.33619 1.000E-05 09:13:55.260 1.500E-01 0.500 F 0.221 0.180 +08° 37' 44.10" 1.000E-01 0.500 F 0.180 -0.004 21.7 R 0.70 0.35 o 691 0.37 Yes Yes
2018XK5 O C K 2019-01-09.39808 1.000E-05 06:12:32.930 1.500E-01 0.500 F -0.036 -0.135 +00° 41' 07.00" 1.000E-01 0.500 F 0.054 0.118 19.1 R 0.70 -0.15 o 691 0.39 Yes Yes
2018XK5 O C K 2019-01-09.40173 1.000E-05 06:12:33.000 1.500E-01 0.500 F -0.036 0.312 +00° 41' 20.20" 1.000E-01 0.500 F 0.054 -0.001 18.6 R 0.70 -0.65 o 691 0.67 Yes Yes
2018XK5 O C K 2019-01-09.40539 1.000E-05 06:12:33.030 1.500E-01 0.500 F -0.036 0.148 +00° 41' 33.70" 1.000E-01 0.500 F 0.054 0.145 19.4 R 0.70 0.15 o 691 0.45 Yes Yes
2016NZ55 O C K 2019-01-09.40950 1.000E-05 07:22:42.180 1.500E-01 0.500 F -0.060 -0.533 -05° 31' 28.30" 1.000E-01 0.500 F 0.010 0.059 20.2 R 0.70 0.01 o 691 1.12 Yes Yes
2016NZ55 O C K 2019-01-09.41257 1.000E-05 07:22:41.920 1.500E-01 0.500 F -0.060 0.451 -05° 31' 13.40" 1.000E-01 0.500 F 0.010 -0.415 20.9 R 0.70 0.71 o 691 1.28 Yes Yes
2016NZ55 O C K 2019-01-09.41563 1.000E-05 07:22:41.560 1.500E-01 0.500 F -0.060 -0.079 -05° 30' 57.90" 1.000E-01 0.500 F 0.010 -0.239 20.0 R 0.70 -0.19 o 691 0.53 Yes Yes
2018YU2 O C K 2019-01-09.42010 1.000E-05 09:03:33.060 1.500E-01 0.500 F 0.110 -0.316 -15° 28' 39.10" 1.000E-01 0.500 F -0.221 -0.260 18.6 R 0.70 -0.32 o 691 0.87 Yes Yes
2018YU2 O C K 2019-01-09.42281 1.000E-05 09:03:34.960 1.500E-01 0.500 F 0.110 0.090 -15° 29' 52.90" 1.000E-01 0.500 F -0.221 0.167 18.5 R 0.70 -0.42 o 691 0.40 Yes Yes
2018YU2 O C K 2019-01-09.42553 1.000E-05 09:03:36.870 1.500E-01 0.500 F 0.110 0.495 -15° 31' 07.40" 1.000E-01 0.500 F -0.221 0.159 19.2 R 0.70 0.28 o 691 1.11 Yes Yes
2009AS O C K 2019-01-10.20119 1.000E-05 05:32:14.200 1.500E-01 0.500 F -0.088 0.047 +20° 34' 49.20" 1.000E-01 0.500 F 0.145 0.218 20.1 R 0.70 0.41 o 691 0.46 Yes Yes
2009AS O C K 2019-01-10.20661 1.000E-05 05:32:13.700 1.500E-01 0.500 F -0.088 -0.197 +20° 34' 50.70" 1.000E-01 0.500 F 0.145 0.353 19.5 R 0.70 -0.19 o 691 0.83 Yes Yes
2009AS O C K 2019-01-10.21203 1.000E-05 05:32:13.240 1.500E-01 0.500 F -0.088 0.121 +20° 34' 51.40" 1.000E-01 0.500 F 0.145 -0.308 19.9 R 0.70 0.21 o 691 0.68 Yes Yes
2019AX O C K 2019-01-10.22544 1.000E-05 06:21:10.460 1.500E-01 0.500 F -0.043 0.089 -02° 32' 14.90" 1.000E-01 0.500 F 0.012 -0.111 20.2 R 0.70 0.45 o 691 0.29 Yes Yes
2019AX O C K 2019-01-10.22966 1.000E-05 06:21:11.810 1.500E-01 0.500 F -0.043 -0.227 -02° 31' 58.40" 1.000E-01 0.500 F 0.012 -0.209 19.8 R 0.70 0.05 o 691 0.63 Yes Yes
2019AX O C K 2019-01-10.23389 1.000E-05 06:21:13.180 1.500E-01 0.500 F -0.043 -0.278 -02° 31' 41.80" 1.000E-01 0.500 F 0.012 -0.244 20.1 R 0.70 0.35 o 691 0.76 Yes Yes
2018YE2 O C K 2019-01-11.10750 1.000E-05 01:49:09.120 1.500E-01 0.500 F -0.192 0.059 +04° 16' 34.50" 1.000E-01 0.500 F 0.201 -0.099 o 691 0.23 Yes No
2018YE2 O C K 2019-01-11.11228 1.000E-05 01:49:09.200 1.500E-01 0.500 F -0.192 -0.051 +04° 16' 51.60" 1.000E-01 0.500 F 0.201 -0.265 21.0 R 0.70 0.56 o 691 0.55 Yes Yes
2018YE2 O C K 2019-01-11.11706 1.000E-05 01:49:09.260 1.500E-01 0.500 F -0.192 -0.464 +04° 17' 09.70" 1.000E-01 0.500 F 0.201 0.569 20.6 R 0.70 0.16 o 691 1.48 Yes Yes
2019AQ2 O C K 2019-01-11.27820 1.000E-05 03:59:25.230 1.500E-01 0.500 F -0.101 0.160 +26° 06' 14.20" 1.000E-01 0.500 F 0.290 -0.427 20.6 R 0.70 -0.16 o 691 0.91 Yes Yes
2019AQ2 O C K 2019-01-11.28307 1.000E-05 03:59:26.770 1.500E-01 0.500 F -0.101 0.264 +26° 06' 21.40" 1.000E-01 0.500 F 0.290 -0.186 21.0 R 0.70 0.24 o 691 0.65 Yes Yes

[1-200] [201-400] [401-600] [601-800] [801-1000] [1001-1200] [1201-1400] [1401-1600] [1601-1800] [1801-2000] [2001-2200] [2201-2400] [2401-2600] [2601-2800] [2801-3000] [3001-3200] [3201-3400] [3401-3600] [3601-3800] [3801-4000] [4001-4200] [4201-4400] [4401-4600] [4601-4800] [4801-5000] [5001-5200] [5201-5400] [5401-5600] [5601-5800] [5801-6000] [6001-6200] [6201-6400] [6401-6600] [6601-6800] [6801-7000] [7001-7200] [7201-7400] [7401-7600] [7601-7800] [7801-8000] [8001-8200] [8201-8400] [8401-8600] [8601-8800] [8801-9000] [9001-9200] [9201-9400] [9401-9600] [9601-9800] [9801-10000] [10001-10200] [10201-10400] [10401-10600] [10601-10800] [10801-11000] [11001-11200] [11201-11400] [11401-11600] [11601-11800] [11801-12000] [12001-12200] [12201-12400] [12401-12600] [12601-12800] [12801-13000] [13001-13200] [13201-13400] [13401-13600] [13601-13800] [13801-14000] [14001-14200] [14201-14400] [14401-14600] [14601-14800] [14801-15000] [15001-15200] [15201-15400] [15401-15600] [15601-15800] [15801-16000] [16001-16200] [16201-16400] [16401-16600] [16601-16800] [16801-17000] [17001-17200] [17201-17400] [17401-17600] [17601-17800] [17801-18000] [18001-18200] [18201-18400] [18401-18600] [18601-18800] [18801-19000] [19001-19200] [19201-19400] [19401-19600] [19601-19800] [19801-20000] [20001-20200] [20201-20400] [20401-20600] [20601-20800] [20801-21000] [21001-21200] [21201-21400] [21401-21600] [21601-21800] [21801-22000] [22001-22200] [22201-22400] [22401-22600] [22601-22800] [22801-23000] [23001-23200] [23201-23400] [23401-23600] [23601-23800] [23801-24000] [24001-24200] [24201-24400] [24401-24600] [24601-24800] [24801-25000] [25001-25200] [25201-25400] [25401-25600] [25601-25800] [25801-26000] [26001-26200] [26201-26400] [26401-26600] [26601-26800] [26801-27000] [27001-27200] [27201-27400] [27401-27600] [27601-27800] [27801-28000] [28001-28200] [28201-28400] [28401-28600] [28601-28800] [28801-29000] [29001-29200] [29201-29400] [29401-29600] [29601-29800] [29801-30000] [30001-30200] [30201-30400] [30401-30600] [30601-30800] [30801-31000] [31001-31200] [31201-31400] [31401-31600] [31601-31800] [31801-32000] [32001-32200] [32201-32400] [32401-32600] [32601-32800] [32801-33000] [33001-33200] [33201-33400] [33401-33600] [33601-33800] [33801-34000] [34001-34200] [34201-34400] [34401-34600] [34601-34800] [34801-35000] [35001-35200] [35201-35400] [35401-35600] [35601-35800] [35801-36000] [36001-36200] [36201-36400] [36401-36600] [36601-36800] [36801-37000] [37001-37200] [37201-37400] [37401-37600] [37601-37800] [37801-38000] [38001-38200] [38201-38400] [38401-38600] [38601-38800] [38801-39000] [39001-39200] [39201-39400] [39401-39600] [39601-39800] [39801-40000] [40001-40200] [40201-40400] [40401-40600] [40601-40800] [40801-41000] [41001-41200] [41201-41400] [41401-41600] [41601-41800] [41801-42000] [42001-42200] [42201-42400] [42401-42600] [42601-42800] [42801-43000] [43001-43200] [43201-43400] [43401-43600] [43601-43800] [43801-44000] [44001-44200] [44201-44400] [44401-44600] [44601-44800] [44801-45000] [45001-45200] [45201-45400] [45401-45600] [45601-45800] [45801-46000] [46001-46200] [46201-46400] [46401-46600] [46601-46800] [46801-47000] [47001-47200] [47201-47400] [47401-47600] [47601-47800] [47801-48000] [48001-48200] [48201-48400] [48401-48600] [48601-48800] [48801-49000] [49001-49200] [49201-49400] [49401-49600] [49601-49800] [49801-50000] [50001-50200] [50201-50388]